createdAt,value
2023-01-20T00:02:08.300Z,124.00
2023-01-20T00:04:42.946Z,101.30
2023-01-20T00:07:13.479Z,106.40
2023-01-20T00:09:43.953Z,113.30
2023-01-20T00:12:18.989Z,118.50
2023-01-20T00:14:52.573Z,125.40
2023-01-20T00:17:23.429Z,131.80
2023-01-20T00:19:56.211Z,135.30
2023-01-20T00:22:30.002Z,130.20
2023-01-20T00:25:01.622Z,125.80
2023-01-20T00:27:34.905Z,112.80
2023-01-20T00:30:06.581Z,116.40
2023-01-20T00:32:45.181Z,113.50
2023-01-20T00:35:19.161Z,109.50
2023-01-20T00:37:53.452Z,109.00
2023-01-20T00:40:23.882Z,113.50
2023-01-20T00:42:56.972Z,100.40
2023-01-20T00:45:31.569Z,88.70
2023-01-20T00:48:06.974Z,85.00
2023-01-20T00:50:37.469Z,90.20
2023-01-20T00:53:11.410Z,81.90
2023-01-20T00:55:42.081Z,81.40
2023-01-20T00:58:12.687Z,86.20
2023-01-20T01:00:46.695Z,83.40
2023-01-20T01:03:17.564Z,88.30
2023-01-20T01:05:48.215Z,81.00
2023-01-20T01:08:19.086Z,83.40
2023-01-20T01:10:49.644Z,81.30
2023-01-20T01:13:20.088Z,81.10
2023-01-20T01:15:51.927Z,79.30
2023-01-20T01:18:22.665Z,82.90
2023-01-20T01:20:56.491Z,78.80
2023-01-20T01:23:27.932Z,85.50
2023-01-20T01:25:59.000Z,77.00
2023-01-20T01:28:33.871Z,76.70
2023-01-20T01:31:07.697Z,74.80
2023-01-20T01:33:39.792Z,76.80
2023-01-20T01:44:06.046Z,75.10
2023-01-20T01:46:36.581Z,75.10
2023-01-20T01:49:22.732Z,71.70
2023-01-20T01:52:00.556Z,69.20
2023-01-20T01:54:46.594Z,71.50
2023-01-20T01:57:17.129Z,69.20
2023-01-20T01:59:47.326Z,73.90
2023-01-20T02:02:23.988Z,73.10
2023-01-20T02:04:54.687Z,77.30
2023-01-20T02:07:27.313Z,78.80
2023-01-20T02:09:57.990Z,78.10
2023-01-20T02:12:28.505Z,75.80
2023-01-20T02:15:01.400Z,71.40
2023-01-20T02:17:45.713Z,68.70
2023-01-20T02:20:16.120Z,70.00
2023-01-20T02:23:27.172Z,74.50
2023-01-20T02:26:26.348Z,68.00
2023-01-20T02:29:19.952Z,74.80
2023-01-20T02:32:32.802Z,72.40
2023-01-20T02:35:19.774Z,63.70
2023-01-20T02:37:56.287Z,60.40
2023-01-20T02:41:01.283Z,60.60
2023-01-20T02:44:04.560Z,61.80
2023-01-20T02:46:45.290Z,60.90
2023-01-20T02:49:29.397Z,65.40
2023-01-20T02:52:15.320Z,69.40
2023-01-20T02:54:51.672Z,64.70
2023-01-20T02:57:31.812Z,60.50
2023-01-20T03:02:44.604Z,64.70
2023-01-20T03:05:43.624Z,64.20
2023-01-20T03:08:20.373Z,67.00
2023-01-20T03:10:53.258Z,63.90
2023-01-20T03:13:43.562Z,64.80
2023-01-20T03:16:20.827Z,58.90
2023-01-20T03:18:56.227Z,58.60
2023-01-20T03:21:28.557Z,62.10
2023-01-20T03:24:03.407Z,61.50
2023-01-20T03:26:38.126Z,61.70
2023-01-20T03:29:11.765Z,63.60
2023-01-20T03:31:52.649Z,60.10
2023-01-20T03:34:29.222Z,60.30
2023-01-20T03:37:03.211Z,60.00
2023-01-20T03:39:35.060Z,62.10
2023-01-20T03:42:27.124Z,64.00
2023-01-20T03:45:10.707Z,61.40
2023-01-20T03:48:03.352Z,61.00
2023-01-20T03:50:48.692Z,60.50
2023-01-20T03:53:45.955Z,58.00
2023-01-20T03:56:45.839Z,55.30
2023-01-20T04:00:09.042Z,55.30
2023-01-20T04:02:45.279Z,54.50
2023-01-20T04:05:41.658Z,58.80
2023-01-20T04:09:02.833Z,58.50
2023-01-20T04:11:54.021Z,61.20
2023-01-20T04:14:59.110Z,59.30
2023-01-20T04:17:36.379Z,55.70
2023-01-20T04:20:26.064Z,52.10
2023-01-20T04:23:11.085Z,54.40
2023-01-20T04:25:54.995Z,54.40
2023-01-20T04:28:46.116Z,54.00
2023-01-20T04:31:31.277Z,50.90
2023-01-20T04:34:17.110Z,53.10
2023-01-20T04:37:06.098Z,64.30
2023-01-20T04:39:45.201Z,69.20
2023-01-20T04:42:45.501Z,65.40
2023-01-20T04:45:20.120Z,67.40
2023-01-20T04:47:56.263Z,77.50
2023-01-20T04:51:00.120Z,65.40
2023-01-20T04:53:43.200Z,58.60
2023-01-20T04:56:23.801Z,53.30
2023-01-20T04:59:32.093Z,56.00
2023-01-20T05:02:10.442Z,53.90
2023-01-20T05:06:04.756Z,56.90
2023-01-20T05:08:44.500Z,55.30
2023-01-20T05:11:28.316Z,54.40
2023-01-20T05:14:18.759Z,49.90
2023-01-20T05:17:10.057Z,52.40
2023-01-20T05:19:45.475Z,51.20
2023-01-20T05:22:44.700Z,51.50
2023-01-20T05:25:35.583Z,49.90
2023-01-20T05:28:41.692Z,52.70
2023-01-20T05:31:48.725Z,56.00
2023-01-20T05:34:28.471Z,53.80
2023-01-20T05:37:19.674Z,40.30
2023-01-20T05:40:10.731Z,51.40
2023-01-20T05:42:48.843Z,52.40
2023-01-20T05:45:32.902Z,46.30
2023-01-20T05:48:10.886Z,50.20
2023-01-20T05:51:12.699Z,50.70
2023-01-20T05:53:54.573Z,51.50
2023-01-20T05:57:02.628Z,49.10
2023-01-20T05:59:36.672Z,51.20
2023-01-20T06:02:54.634Z,55.20
2023-01-20T06:05:33.681Z,52.40
2023-01-20T06:10:59.446Z,48.90
2023-01-20T06:13:40.657Z,58.20
2023-01-20T06:16:34.688Z,58.40
2023-01-20T06:19:15.740Z,62.30
2023-01-20T06:22:06.284Z,54.20
2023-01-20T06:24:45.255Z,63.70
2023-01-20T06:27:19.214Z,62.90
2023-01-20T06:29:51.321Z,61.60
2023-01-20T06:32:22.937Z,64.90
2023-01-20T06:34:57.296Z,67.50
2023-01-20T06:37:27.964Z,61.70
2023-01-20T06:39:59.087Z,60.60
2023-01-20T06:42:34.370Z,61.20
2023-01-20T06:45:27.754Z,57.40
2023-01-20T06:47:59.203Z,57.40
2023-01-20T06:50:42.676Z,60.50
2023-01-20T06:53:19.089Z,67.40
2023-01-20T06:55:57.726Z,78.10
2023-01-20T06:58:32.869Z,80.60
2023-01-20T07:01:12.385Z,83.70
2023-01-20T07:03:46.797Z,74.40
2023-01-20T07:06:27.889Z,77.50
2023-01-20T07:09:00.419Z,78.40
2023-01-20T07:11:31.792Z,69.80
2023-01-20T07:14:02.687Z,66.70
2023-01-20T07:16:33.997Z,58.70
2023-01-20T07:19:04.403Z,59.60
2023-01-20T07:21:34.821Z,60.00
2023-01-20T07:24:10.276Z,68.70
2023-01-20T07:26:40.939Z,71.30
2023-01-20T07:29:16.003Z,70.00
2023-01-20T07:31:49.979Z,69.00
2023-01-20T07:34:22.169Z,70.60
2023-01-20T07:36:56.601Z,70.70
2023-01-20T07:39:27.305Z,60.80
2023-01-20T07:41:57.776Z,59.70
2023-01-20T07:44:28.701Z,59.00
2023-01-20T07:47:04.047Z,67.60
2023-01-20T07:49:34.776Z,67.90
2023-01-20T07:52:05.644Z,67.30
2023-01-20T07:54:36.298Z,72.40
2023-01-20T07:57:07.068Z,74.60
2023-01-20T07:59:39.833Z,75.90
2023-01-20T08:02:15.740Z,74.00
2023-01-20T08:04:48.152Z,79.80
2023-01-20T08:07:18.883Z,82.40
2023-01-20T08:09:50.631Z,89.90
2023-01-20T08:12:21.041Z,81.40
2023-01-20T08:14:52.111Z,78.70
2023-01-20T08:17:23.151Z,68.50
2023-01-20T08:19:59.682Z,74.20
2023-01-20T08:22:30.633Z,76.10
2023-01-20T08:25:01.267Z,79.10
2023-01-20T08:27:34.729Z,87.00
2023-01-20T08:30:05.583Z,87.00
2023-01-20T08:32:36.593Z,85.10
2023-01-20T08:35:10.768Z,82.10
2023-01-20T08:37:41.450Z,74.30
2023-01-20T08:40:15.154Z,77.40
2023-01-20T08:42:45.816Z,73.00
2023-01-20T08:45:19.733Z,73.10
2023-01-20T08:47:50.240Z,73.60
2023-01-20T08:50:23.601Z,69.50
2023-01-20T08:52:54.355Z,71.50
2023-01-20T08:55:29.570Z,71.00
2023-01-20T08:58:01.316Z,67.10
2023-01-20T09:00:33.242Z,71.60
2023-01-20T09:03:04.184Z,71.00
2023-01-20T09:05:38.384Z,68.30
2023-01-20T09:08:08.926Z,73.00
2023-01-20T09:10:39.516Z,70.30
2023-01-20T09:13:11.456Z,73.00
2023-01-20T09:15:42.282Z,71.60
2023-01-20T09:18:12.920Z,67.90
2023-01-20T09:20:46.645Z,74.60
2023-01-20T09:23:20.541Z,73.70
2023-01-20T09:25:51.169Z,76.70
2023-01-20T09:28:23.749Z,67.90
2023-01-20T09:31:00.548Z,68.30
2023-01-20T09:33:31.022Z,72.10
2023-01-20T09:36:02.111Z,65.00
2023-01-20T09:38:50.140Z,66.70
2023-01-20T09:41:52.954Z,67.40
2023-01-20T09:44:51.536Z,72.10
2023-01-20T09:47:32.265Z,74.70
2023-01-20T09:50:58.047Z,72.30
2023-01-20T09:53:50.652Z,73.30
2023-01-20T09:56:26.602Z,73.60
2023-01-20T09:59:09.007Z,75.00
2023-01-20T10:01:46.581Z,71.90
2023-01-20T10:04:26.437Z,72.10
2023-01-20T10:07:04.979Z,67.90
2023-01-20T10:09:38.526Z,54.10
2023-01-20T10:12:24.814Z,58.60
2023-01-20T10:15:24.688Z,60.50
2023-01-20T10:18:09.726Z,59.70
2023-01-20T10:21:06.772Z,56.30
2023-01-20T10:23:47.437Z,52.70
2023-01-20T10:26:31.402Z,56.90
2023-01-20T10:29:04.136Z,59.50
2023-01-20T10:31:40.590Z,60.10
2023-01-20T10:34:19.614Z,56.30
2023-01-20T10:37:08.754Z,50.40
2023-01-20T10:39:50.931Z,55.50
2023-01-20T10:42:22.309Z,53.10
2023-01-20T10:44:55.539Z,48.10
2023-01-20T10:47:35.663Z,48.40
2023-01-20T10:50:39.220Z,54.50
2023-01-20T10:53:45.496Z,55.60
2023-01-20T10:56:26.893Z,63.60
2023-01-20T10:58:58.298Z,75.80
2023-01-20T11:01:29.188Z,83.10
2023-01-20T11:04:08.345Z,82.50
2023-01-20T11:06:40.812Z,80.40
2023-01-20T11:09:25.929Z,76.40
2023-01-20T11:11:59.526Z,67.60
2023-01-20T11:14:35.132Z,56.80
2023-01-20T11:17:14.973Z,55.70
2023-01-20T11:19:52.153Z,58.40
2023-01-20T11:22:35.003Z,59.20
2023-01-20T11:25:27.261Z,59.60
2023-01-20T11:27:58.711Z,71.30
2023-01-20T11:30:37.198Z,61.40
2023-01-20T11:33:22.560Z,61.20
2023-01-20T11:36:08.314Z,68.50
2023-01-20T11:38:46.402Z,58.30
2023-01-20T11:41:25.243Z,51.50
2023-01-20T11:44:00.008Z,52.30
2023-01-20T11:46:33.474Z,56.80
2023-01-20T11:49:24.530Z,58.40
2023-01-20T11:51:57.643Z,57.90
2023-01-20T11:54:30.779Z,56.00
2023-01-20T11:57:09.233Z,57.30
2023-01-20T11:59:49.986Z,57.70
2023-01-20T12:02:30.782Z,53.10
2023-01-20T12:05:25.674Z,52.20
2023-01-20T12:07:58.623Z,48.00
2023-01-20T12:10:36.573Z,48.00
2023-01-20T12:13:30.100Z,46.40
2023-01-20T12:16:02.899Z,54.70
2023-01-20T12:18:45.334Z,53.00
2023-01-20T12:21:20.178Z,55.30
2023-01-20T12:23:57.706Z,57.00
2023-01-20T12:31:05.280Z,56.60
2023-01-20T12:33:47.222Z,57.60
2023-01-20T12:36:33.550Z,48.90
2023-01-20T12:39:26.172Z,53.10
2023-01-20T12:42:13.005Z,54.10
2023-01-20T12:49:33.450Z,56.80
2023-01-20T12:52:35.299Z,54.40
2023-01-20T12:55:38.590Z,57.20
2023-01-20T12:58:21.472Z,61.70
2023-01-20T13:00:59.146Z,60.30
2023-01-20T13:03:56.915Z,57.70
2023-01-20T13:07:11.453Z,59.10
2023-01-20T13:09:50.148Z,62.70
2023-01-20T13:12:45.221Z,57.70
2023-01-20T13:15:20.392Z,54.80
2023-01-20T13:18:09.082Z,60.90
2023-01-20T13:20:43.404Z,62.70
2023-01-20T13:23:22.466Z,61.10
2023-01-20T13:25:54.436Z,53.30
2023-01-20T13:28:28.311Z,57.50
2023-01-20T13:31:04.315Z,56.90
2023-01-20T13:33:44.181Z,55.70
2023-01-20T13:36:23.512Z,51.70
2023-01-20T13:39:31.813Z,54.00
2023-01-20T13:42:02.632Z,55.90
2023-01-20T13:44:42.941Z,65.00
2023-01-20T13:47:54.557Z,57.50
2023-01-20T13:50:38.291Z,52.10
2023-01-20T13:53:29.696Z,53.10
2023-01-20T13:56:31.613Z,51.10
2023-01-20T13:59:01.958Z,53.70
2023-01-20T14:01:32.537Z,54.30
2023-01-20T14:04:16.751Z,52.50
2023-01-20T14:06:55.442Z,52.70
2023-01-20T14:09:27.812Z,60.70
2023-01-20T14:12:01.570Z,70.00
2023-01-20T14:14:33.349Z,55.10
2023-01-20T14:17:27.172Z,59.10
2023-01-20T14:20:07.344Z,48.70
2023-01-20T14:22:44.933Z,56.00
2023-01-20T14:25:27.330Z,55.60
2023-01-20T14:27:58.039Z,55.20
2023-01-20T14:30:29.494Z,54.30
2023-01-20T14:33:01.704Z,51.50
2023-01-20T14:35:38.760Z,56.40
2023-01-20T14:38:20.002Z,55.20
2023-01-20T14:40:53.719Z,56.20
2023-01-20T14:43:24.489Z,59.90
2023-01-20T14:46:00.234Z,55.50
2023-01-20T14:48:34.796Z,57.20
2023-01-20T14:51:12.163Z,59.20
2023-01-20T14:53:47.151Z,59.70
2023-01-20T14:56:23.897Z,58.20
2023-01-20T14:58:56.520Z,58.50
2023-01-20T15:01:31.487Z,54.30
2023-01-20T15:04:06.265Z,52.20
2023-01-20T15:06:36.968Z,51.30
2023-01-20T15:09:26.720Z,47.50
2023-01-20T15:12:34.445Z,51.00
2023-01-20T15:15:33.881Z,53.80
2023-01-20T15:18:17.616Z,59.70
2023-01-20T15:20:55.059Z,55.60
2023-01-20T15:23:38.460Z,58.40
2023-01-20T15:26:31.286Z,56.20
2023-01-20T15:29:03.123Z,61.80
2023-01-20T15:31:33.451Z,57.20
2023-01-20T15:34:05.222Z,53.40
2023-01-20T15:36:37.500Z,51.70
2023-01-20T15:39:22.019Z,49.00
2023-01-20T15:41:58.708Z,48.20
2023-01-20T15:44:29.161Z,47.50
2023-01-20T15:47:02.268Z,47.50
2023-01-20T15:49:32.706Z,46.00
2023-01-20T15:52:07.250Z,53.70
2023-01-20T15:54:37.717Z,44.70
2023-01-20T15:57:15.896Z,46.90
2023-01-20T15:59:50.603Z,41.10
2023-01-20T16:02:23.557Z,43.40
2023-01-20T16:04:54.146Z,39.90
2023-01-20T16:07:24.543Z,41.00
2023-01-20T16:09:58.731Z,38.40
2023-01-20T16:12:31.007Z,41.30
2023-01-20T16:15:05.607Z,38.30
2023-01-20T16:17:36.079Z,35.20
2023-01-20T16:20:12.121Z,42.10
2023-01-20T16:22:47.539Z,34.50
2023-01-20T16:25:18.646Z,35.60
2023-01-20T16:27:50.848Z,36.50
2023-01-20T16:30:36.329Z,33.80
2023-01-20T16:33:18.200Z,32.50
2023-01-20T16:35:57.779Z,31.40
2023-01-20T16:38:30.132Z,28.40
2023-01-20T16:41:13.441Z,30.60
2023-01-20T16:43:44.344Z,31.90
2023-01-20T16:46:33.476Z,31.90
2023-01-20T16:49:06.375Z,39.00
2023-01-20T16:51:36.821Z,35.40
2023-01-20T16:54:07.497Z,31.50
2023-01-20T16:56:40.071Z,31.10
2023-01-20T16:59:13.459Z,27.50
2023-01-20T17:01:51.243Z,30.10
2023-01-20T17:04:25.294Z,31.60
2023-01-20T17:06:56.409Z,30.60
2023-01-20T17:09:45.390Z,26.60
2023-01-20T17:12:36.883Z,27.20
2023-01-20T17:15:08.386Z,29.80
2023-01-20T17:17:46.290Z,26.50
2023-01-20T17:20:19.543Z,31.80
2023-01-20T17:22:52.737Z,28.90
2023-01-20T17:25:24.321Z,27.50
2023-01-20T17:27:55.320Z,30.80
2023-01-20T17:30:26.938Z,28.70
2023-01-20T17:32:59.945Z,27.10
2023-01-20T17:35:32.680Z,28.80
2023-01-20T17:38:07.437Z,27.70
2023-01-20T17:40:41.598Z,29.30
2023-01-20T17:43:14.881Z,27.20
2023-01-20T17:45:46.674Z,31.30
2023-01-20T17:48:19.260Z,30.60
2023-01-20T17:50:53.378Z,30.00
2023-01-20T17:53:24.654Z,32.40
2023-01-20T17:56:10.972Z,30.10
2023-01-20T17:58:43.934Z,33.10
2023-01-20T18:01:19.195Z,29.10
2023-01-20T18:03:52.941Z,29.80
2023-01-20T18:06:28.297Z,28.20
2023-01-20T18:09:03.447Z,29.10
2023-01-20T18:11:59.167Z,29.60
2023-01-20T18:14:31.782Z,29.20
2023-01-20T18:17:06.226Z,30.20
2023-01-20T18:19:40.439Z,32.00
2023-01-20T18:22:12.986Z,34.00
2023-01-20T18:24:51.616Z,33.90
2023-01-20T18:27:32.963Z,36.80
2023-01-20T18:30:04.824Z,32.50
2023-01-20T18:33:32.074Z,33.00
2023-01-20T18:36:05.160Z,32.60
2023-01-20T18:38:43.725Z,35.50
2023-01-20T18:41:19.050Z,37.20
2023-01-20T18:43:54.052Z,35.60
2023-01-20T18:46:28.999Z,37.40
2023-01-20T18:49:01.580Z,33.50
2023-01-20T18:51:34.808Z,30.30
2023-01-20T18:54:12.867Z,28.10
2023-01-20T18:56:45.733Z,28.60
2023-01-20T18:59:21.097Z,24.10
2023-01-20T19:02:00.326Z,25.20
2023-01-20T19:04:34.280Z,21.80
2023-01-20T19:07:15.322Z,24.90
2023-01-20T19:09:52.418Z,22.10
2023-01-20T19:12:28.516Z,23.30
2023-01-20T19:15:02.368Z,19.50
2023-01-20T19:17:35.126Z,20.50
2023-01-20T19:20:07.615Z,20.60
2023-01-20T19:22:41.426Z,19.00
2023-01-20T19:25:22.301Z,19.90
2023-01-20T19:27:57.873Z,19.20
2023-01-20T19:30:30.190Z,20.50
2023-01-20T19:33:04.374Z,24.40
2023-01-20T19:35:41.834Z,23.80
2023-01-20T19:38:15.034Z,23.30
2023-01-20T19:40:47.392Z,26.40
2023-01-20T19:43:22.729Z,25.40
2023-01-20T19:45:55.720Z,25.20
2023-01-20T19:48:35.353Z,28.30
2023-01-20T19:51:54.198Z,25.90
2023-01-20T19:57:10.534Z,31.20
2023-01-20T19:59:49.096Z,28.20
2023-01-20T20:02:24.023Z,31.70
2023-01-20T20:04:56.025Z,31.90
2023-01-20T20:07:29.481Z,31.90
2023-01-20T20:10:02.461Z,27.50
2023-01-20T20:12:48.543Z,24.30
2023-01-20T20:15:21.553Z,30.20
2023-01-20T20:18:01.332Z,21.00
2023-01-20T20:20:35.753Z,19.60
2023-01-20T20:23:12.265Z,21.70
2023-01-20T20:25:57.093Z,34.80
2023-01-20T20:28:31.813Z,22.80
2023-01-20T20:31:15.608Z,25.60
2023-01-20T20:33:48.716Z,25.10
2023-01-20T20:36:20.367Z,23.30
2023-01-20T20:38:54.752Z,43.20
2023-01-20T20:41:29.526Z,27.00
2023-01-20T20:44:05.402Z,24.50
2023-01-20T20:46:40.947Z,20.10
2023-01-20T20:49:20.180Z,23.20
2023-01-20T20:51:51.742Z,25.00
2023-01-20T20:54:28.471Z,26.00
2023-01-20T20:57:04.882Z,23.10
2023-01-20T20:59:53.930Z,35.30
2023-01-20T21:02:32.018Z,27.40
2023-01-20T21:05:07.111Z,25.20
2023-01-20T21:07:42.903Z,24.00
2023-01-20T21:10:17.580Z,25.80
2023-01-20T21:12:49.553Z,25.50
2023-01-20T21:15:28.273Z,27.20
2023-01-20T21:18:03.631Z,23.10
2023-01-20T21:20:38.548Z,21.60
2023-01-20T21:23:11.278Z,21.00
2023-01-20T21:25:46.529Z,17.60
2023-01-20T21:28:21.002Z,21.40
2023-01-20T21:30:56.502Z,16.90
2023-01-20T21:33:30.900Z,16.70
2023-01-20T21:36:24.574Z,19.80
2023-01-20T21:38:58.175Z,18.40
2023-01-20T21:41:29.656Z,22.30
2023-01-20T21:44:20.027Z,20.50
2023-01-20T21:49:48.950Z,20.30
2023-01-20T21:52:47.345Z,21.70
2023-01-20T21:55:22.238Z,19.10
2023-01-20T21:57:53.125Z,21.30
2023-01-20T22:00:32.731Z,20.70
2023-01-20T22:03:03.452Z,21.80
2023-01-20T22:05:34.117Z,23.50
2023-01-20T22:08:10.890Z,20.60
2023-01-20T22:10:42.020Z,22.70
2023-01-20T22:13:12.834Z,21.10
2023-01-20T22:16:06.959Z,23.50
2023-01-20T22:19:07.753Z,21.40
2023-01-20T22:21:38.340Z,20.40
2023-01-20T22:24:09.329Z,23.40
2023-01-20T22:26:43.867Z,25.00
2023-01-20T22:29:25.193Z,27.00
2023-01-20T22:31:59.213Z,26.70
2023-01-20T22:34:30.121Z,26.10
2023-01-20T22:37:03.642Z,22.90
2023-01-20T22:39:34.081Z,22.40
2023-01-20T22:42:07.162Z,23.60
2023-01-20T22:44:39.821Z,25.10
2023-01-20T22:47:11.357Z,20.40
2023-01-20T22:49:43.821Z,24.60
2023-01-20T22:52:14.476Z,24.30
2023-01-20T22:54:49.559Z,23.40
2023-01-20T22:57:28.451Z,20.60
2023-01-20T22:59:58.866Z,21.90
2023-01-20T23:02:30.723Z,23.40
2023-01-20T23:05:02.175Z,21.70
2023-01-20T23:07:49.703Z,19.30
2023-01-20T23:11:03.115Z,21.50
2023-01-20T23:14:44.522Z,17.70
2023-01-20T23:18:46.730Z,18.50
2023-01-20T23:21:49.219Z,18.70
2023-01-20T23:25:06.075Z,18.90
2023-01-20T23:28:13.162Z,18.20
2023-01-20T23:31:16.666Z,18.90
2023-01-20T23:34:22.115Z,18.80
2023-01-20T23:37:15.001Z,16.70
2023-01-20T23:40:29.967Z,16.00
2023-01-20T23:43:27.263Z,16.40
2023-01-20T23:46:41.051Z,12.50
2023-01-20T23:49:45.189Z,15.40
2023-01-20T23:53:17.474Z,10.20
2023-01-20T23:56:24.220Z,15.80
2023-01-20T23:59:15.383Z,13.60
